Terminal Aerodrome Forecast
Issued by NWS Binghamton, NY

Home | Current Version | Previous Version | Text Only | Print | Product List | Glossary On
Versions: 1 2 3 4 5 6 7 8 9 10 11 12 13 14 15 16 17 18 19 20 21
000
FTUS41 KBGM 191120
TAFAVP
TAF
KAVP 191120Z 1912/2012 35006KT P6SM OVC015
      TEMPO 1913/1916 3SM -SNRA OVC007
     FM191600 32008G14KT 4SM -RA OVC015
     FM191900 32010G18KT P6SM OVC025
     FM200300 31012G21KT P6SM BKN040
     FM200700 31011G20KT P6SM BKN030=

USA.gov is the U.S. government's official web portal to all federal, state and local government web resources and services.